sensor_id;sensor_type;location;lat;lon;timestamp;temperature;humidity
72940;DHT22;61094;51.154;13.570;2023-02-28T00:00:19;-0.10;99.90
72940;DHT22;61094;51.154;13.570;2023-02-28T00:02:21;-0.10;99.90
72940;DHT22;61094;51.154;13.570;2023-02-28T00:04:23;-0.20;99.90
72940;DHT22;61094;51.154;13.570;2023-02-28T00:06:26;-0.10;99.90
72940;DHT22;61094;51.154;13.570;2023-02-28T00:08:28;-0.10;99.90
72940;DHT22;61094;51.154;13.570;2023-02-28T00:10:31;-0.10;99.90
72940;DHT22;61094;51.154;13.570;2023-02-28T00:12:33;-0.10;99.90
72940;DHT22;61094;51.154;13.570;2023-02-28T00:14:34;-0.10;99.90
72940;DHT22;61094;51.154;13.570;2023-02-28T00:16:36;-0.10;99.90
72940;DHT22;61094;51.154;13.570;2023-02-28T00:18:38;-0.10;99.90
72940;DHT22;61094;51.154;13.570;2023-02-28T00:20:40;-0.10;99.90
72940;DHT22;61094;51.154;13.570;2023-02-28T00:22:44;-0.10;99.90
72940;DHT22;61094;51.154;13.570;2023-02-28T00:24:46;-0.10;99.90
72940;DHT22;61094;51.154;13.570;2023-02-28T00:26:48;0.00;99.90
72940;DHT22;61094;51.154;13.570;2023-02-28T00:28:51;-0.10;99.90
72940;DHT22;61094;51.154;13.570;2023-02-28T00:30:53;0.00;99.90
72940;DHT22;61094;51.154;13.570;2023-02-28T00:32:55;0.00;99.90
72940;DHT22;61094;51.154;13.570;2023-02-28T00:34:56;0.00;99.90
72940;DHT22;61094;51.154;13.570;2023-02-28T00:36:58;0.00;99.90
72940;DHT22;61094;51.154;13.570;2023-02-28T00:39:01;0.10;99.90
72940;DHT22;61094;51.154;13.570;2023-02-28T00:41:03;0.10;99.90
72940;DHT22;61094;51.154;13.570;2023-02-28T00:43:05;0.10;99.90
72940;DHT22;61094;51.154;13.570;2023-02-28T00:45:07;0.10;99.90
72940;DHT22;61094;51.154;13.570;2023-02-28T00:47:12;0.00;99.90
72940;DHT22;61094;51.154;13.570;2023-02-28T00:49:13;0.00;99.90
72940;DHT22;61094;51.154;13.570;2023-02-28T00:51:16;0.00;99.90
72940;DHT22;61094;51.154;13.570;2023-02-28T00:53:18;0.00;99.90
72940;DHT22;61094;51.154;13.570;2023-02-28T00:55:21;0.00;99.90
72940;DHT22;61094;51.154;13.570;2023-02-28T00:57:23;0.00;99.90
72940;DHT22;61094;51.154;13.570;2023-02-28T00:59:25;0.00;99.90
72940;DHT22;61094;51.154;13.570;2023-02-28T01:01:26;-0.10;99.90
72940;DHT22;61094;51.154;13.570;2023-02-28T01:03:28;-0.10;99.90
72940;DHT22;61094;51.154;13.570;2023-02-28T01:05:30;-0.10;99.90
72940;DHT22;61094;51.154;13.570;2023-02-28T01:07:31;-0.10;99.90
72940;DHT22;61094;51.154;13.570;2023-02-28T01:09:33;-0.10;99.90
72940;DHT22;61094;51.154;13.570;2023-02-28T01:11:36;-0.20;99.90
72940;DHT22;61094;51.154;13.570;2023-02-28T01:13:38;-0.20;99.90
72940;DHT22;61094;51.154;13.570;2023-02-28T01:15:42;-0.20;99.90
72940;DHT22;61094;51.154;13.570;2023-02-28T01:17:46;-0.20;99.90
72940;DHT22;61094;51.154;13.570;2023-02-28T01:19:48;-0.20;99.90
72940;DHT22;61094;51.154;13.570;2023-02-28T01:21:49;-0.30;99.90
72940;DHT22;61094;51.154;13.570;2023-02-28T01:23:51;-0.30;99.90
72940;DHT22;61094;51.154;13.570;2023-02-28T01:25:54;-0.30;99.90
72940;DHT22;61094;51.154;13.570;2023-02-28T01:27:57;-0.40;99.90
72940;DHT22;61094;51.154;13.570;2023-02-28T01:30:01;-0.40;99.90
72940;DHT22;61094;51.154;13.570;2023-02-28T01:32:03;-0.50;99.90
72940;DHT22;61094;51.154;13.570;2023-02-28T01:34:04;-0.50;99.90
72940;DHT22;61094;51.154;13.570;2023-02-28T01:36:09;-0.50;99.90
72940;DHT22;61094;51.154;13.570;2023-02-28T01:38:11;-0.60;99.90
72940;DHT22;61094;51.154;13.570;2023-02-28T01:40:13;-0.60;99.90
72940;DHT22;61094;51.154;13.570;2023-02-28T01:42:15;-0.60;99.90
72940;DHT22;61094;51.154;13.570;2023-02-28T01:44:59;-0.70;99.90
72940;DHT22;61094;51.154;13.570;2023-02-28T01:47:01;-0.70;99.90
72940;DHT22;61094;51.154;13.570;2023-02-28T01:49:09;-0.70;99.90
72940;DHT22;61094;51.154;13.570;2023-02-28T01:51:15;-0.80;99.90
72940;DHT22;61094;51.154;13.570;2023-02-28T01:53:23;-0.80;99.90
72940;DHT22;61094;51.154;13.570;2023-02-28T01:55:26;-0.90;99.90
72940;DHT22;61094;51.154;13.570;2023-02-28T01:57:35;-0.90;99.90
72940;DHT22;61094;51.154;13.570;2023-02-28T01:59:42;-0.90;99.90
72940;DHT22;61094;51.154;13.570;2023-02-28T02:01:48;-0.90;99.90
72940;DHT22;61094;51.154;13.570;2023-02-28T02:03:52;-1.00;99.90
72940;DHT22;61094;51.154;13.570;2023-02-28T02:05:55;-1.00;99.90
72940;DHT22;61094;51.154;13.570;2023-02-28T02:08:01;-1.00;99.90
72940;DHT22;61094;51.154;13.570;2023-02-28T02:10:06;-1.00;99.90
72940;DHT22;61094;51.154;13.570;2023-02-28T02:12:21;-1.10;99.90
72940;DHT22;61094;51.154;13.570;2023-02-28T02:14:34;-1.10;99.90
72940;DHT22;61094;51.154;13.570;2023-02-28T02:16:52;-1.20;99.90
72940;DHT22;61094;51.154;13.570;2023-02-28T02:19:08;-1.20;99.90
72940;DHT22;61094;51.154;13.570;2023-02-28T02:22:03;-1.30;99.90
72940;DHT22;61094;51.154;13.570;2023-02-28T02:27:02;-1.30;99.90
72940;DHT22;61094;51.154;13.570;2023-02-28T02:29:42;-1.30;99.90
72940;DHT22;61094;51.154;13.570;2023-02-28T02:37:08;-1.40;99.90
72940;DHT22;61094;51.154;13.570;2023-02-28T02:39:16;-1.50;99.90
72940;DHT22;61094;51.154;13.570;2023-02-28T02:41:24;-1.50;99.90
72940;DHT22;61094;51.154;13.570;2023-02-28T02:43:32;-1.50;99.90
72940;DHT22;61094;51.154;13.570;2023-02-28T02:45:38;-1.50;99.90
72940;DHT22;61094;51.154;13.570;2023-02-28T02:47:42;-1.50;99.90
72940;DHT22;61094;51.154;13.570;2023-02-28T02:49:48;-1.60;99.90
72940;DHT22;61094;51.154;13.570;2023-02-28T02:51:52;-1.50;99.90
72940;DHT22;61094;51.154;13.570;2023-02-28T02:53:58;-1.60;99.90
72940;DHT22;61094;51.154;13.570;2023-02-28T02:56:03;-1.60;99.90
72940;DHT22;61094;51.154;13.570;2023-02-28T02:58:10;-1.70;99.90
72940;DHT22;61094;51.154;13.570;2023-02-28T03:00:12;-1.80;99.90
72940;DHT22;61094;51.154;13.570;2023-02-28T03:02:17;-1.80;99.90
72940;DHT22;61094;51.154;13.570;2023-02-28T03:04:22;-1.80;99.90
72940;DHT22;61094;51.154;13.570;2023-02-28T03:06:26;-1.80;99.90
72940;DHT22;61094;51.154;13.570;2023-02-28T03:08:29;-1.80;99.90
72940;DHT22;61094;51.154;13.570;2023-02-28T03:10:37;-1.90;99.90
72940;DHT22;61094;51.154;13.570;2023-02-28T03:12:40;-1.90;99.90
72940;DHT22;61094;51.154;13.570;2023-02-28T03:14:51;-1.90;99.90
72940;DHT22;61094;51.154;13.570;2023-02-28T03:17:14;-1.90;99.90
72940;DHT22;61094;51.154;13.570;2023-02-28T03:19:33;-1.90;99.90
72940;DHT22;61094;51.154;13.570;2023-02-28T03:21:45;-2.00;99.90
72940;DHT22;61094;51.154;13.570;2023-02-28T03:23:55;-2.00;99.90
72940;DHT22;61094;51.154;13.570;2023-02-28T03:26:03;-2.00;99.90
72940;DHT22;61094;51.154;13.570;2023-02-28T03:28:11;-2.00;99.90
72940;DHT22;61094;51.154;13.570;2023-02-28T03:30:23;-2.00;99.90
72940;DHT22;61094;51.154;13.570;2023-02-28T03:32:28;-2.00;99.90
72940;DHT22;61094;51.154;13.570;2023-02-28T03:34:32;-2.00;99.90
72940;DHT22;61094;51.154;13.570;2023-02-28T03:36:37;-2.00;99.90
72940;DHT22;61094;51.154;13.570;2023-02-28T03:38:48;-2.10;99.90
72940;DHT22;61094;51.154;13.570;2023-02-28T03:40:54;-2.10;99.90
72940;DHT22;61094;51.154;13.570;2023-02-28T03:42:59;-2.10;99.90
72940;DHT22;61094;51.154;13.570;2023-02-28T03:45:05;-2.10;99.90
72940;DHT22;61094;51.154;13.570;2023-02-28T03:47:12;-2.20;99.90
72940;DHT22;61094;51.154;13.570;2023-02-28T03:49:16;-2.20;99.90
72940;DHT22;61094;51.154;13.570;2023-02-28T03:51:22;-2.20;99.90
72940;DHT22;61094;51.154;13.570;2023-02-28T03:53:28;-2.20;99.90
72940;DHT22;61094;51.154;13.570;2023-02-28T03:55:34;-2.30;99.90
72940;DHT22;61094;51.154;13.570;2023-02-28T03:57:43;-2.40;99.90
72940;DHT22;61094;51.154;13.570;2023-02-28T03:59:54;-2.40;99.90
72940;DHT22;61094;51.154;13.570;2023-02-28T04:01:57;-2.40;99.90
72940;DHT22;61094;51.154;13.570;2023-02-28T04:03:59;-2.50;99.90
72940;DHT22;61094;51.154;13.570;2023-02-28T04:06:01;-2.50;99.90
72940;DHT22;61094;51.154;13.570;2023-02-28T04:08:05;-2.50;99.90
72940;DHT22;61094;51.154;13.570;2023-02-28T04:10:08;-2.60;99.90
72940;DHT22;61094;51.154;13.570;2023-02-28T04:12:11;-2.60;99.90
72940;DHT22;61094;51.154;13.570;2023-02-28T04:14:13;-2.70;99.90
72940;DHT22;61094;51.154;13.570;2023-02-28T04:16:15;-2.70;99.90
72940;DHT22;61094;51.154;13.570;2023-02-28T04:18:17;-2.70;99.90
72940;DHT22;61094;51.154;13.570;2023-02-28T04:20:19;-2.70;99.90
72940;DHT22;61094;51.154;13.570;2023-02-28T04:22:20;-2.80;99.90
72940;DHT22;61094;51.154;13.570;2023-02-28T04:24:24;-2.80;99.90
72940;DHT22;61094;51.154;13.570;2023-02-28T04:26:28;-2.90;99.90
72940;DHT22;61094;51.154;13.570;2023-02-28T04:28:32;-2.90;99.90
72940;DHT22;61094;51.154;13.570;2023-02-28T04:30:34;-2.90;99.90
72940;DHT22;61094;51.154;13.570;2023-02-28T04:32:36;-2.90;99.90
72940;DHT22;61094;51.154;13.570;2023-02-28T04:34:38;-3.00;99.90
72940;DHT22;61094;51.154;13.570;2023-02-28T04:36:40;-3.00;99.90
72940;DHT22;61094;51.154;13.570;2023-02-28T04:38:42;-3.00;99.90
72940;DHT22;61094;51.154;13.570;2023-02-28T04:40:43;-3.00;99.90
72940;DHT22;61094;51.154;13.570;2023-02-28T04:42:45;-3.00;99.90
72940;DHT22;61094;51.154;13.570;2023-02-28T04:44:48;-3.10;99.90
72940;DHT22;61094;51.154;13.570;2023-02-28T04:46:49;-3.10;99.90
72940;DHT22;61094;51.154;13.570;2023-02-28T04:48:51;-3.10;99.90
72940;DHT22;61094;51.154;13.570;2023-02-28T04:50:53;-3.10;99.90
72940;DHT22;61094;51.154;13.570;2023-02-28T04:52:56;-3.20;99.90
72940;DHT22;61094;51.154;13.570;2023-02-28T04:54:58;-3.10;99.90
72940;DHT22;61094;51.154;13.570;2023-02-28T04:57:00;-3.00;99.90
72940;DHT22;61094;51.154;13.570;2023-02-28T04:59:01;-3.00;99.90
72940;DHT22;61094;51.154;13.570;2023-02-28T05:01:14;-2.90;99.90
72940;DHT22;61094;51.154;13.570;2023-02-28T05:03:17;-2.90;99.90
72940;DHT22;61094;51.154;13.570;2023-02-28T05:05:18;-2.90;99.90
72940;DHT22;61094;51.154;13.570;2023-02-28T05:07:20;-2.90;99.90
72940;DHT22;61094;51.154;13.570;2023-02-28T05:09:22;-2.90;99.90
72940;DHT22;61094;51.154;13.570;2023-02-28T05:11:25;-2.90;99.90
72940;DHT22;61094;51.154;13.570;2023-02-28T05:13:27;-3.00;99.90
72940;DHT22;61094;51.154;13.570;2023-02-28T05:15:29;-3.00;99.90
72940;DHT22;61094;51.154;13.570;2023-02-28T05:17:32;-3.00;99.90
72940;DHT22;61094;51.154;13.570;2023-02-28T05:19:34;-3.00;99.90
72940;DHT22;61094;51.154;13.570;2023-02-28T05:21:37;-3.00;99.90
72940;DHT22;61094;51.154;13.570;2023-02-28T05:23:40;-3.10;99.90
72940;DHT22;61094;51.154;13.570;2023-02-28T05:25:41;-3.10;99.90
72940;DHT22;61094;51.154;13.570;2023-02-28T05:27:43;-3.10;99.90
72940;DHT22;61094;51.154;13.570;2023-02-28T05:29:45;-3.20;99.90
72940;DHT22;61094;51.154;13.570;2023-02-28T05:31:46;-3.20;99.90
72940;DHT22;61094;51.154;13.570;2023-02-28T05:33:50;-3.20;99.90
72940;DHT22;61094;51.154;13.570;2023-02-28T05:35:51;-3.30;99.90
72940;DHT22;61094;51.154;13.570;2023-02-28T05:37:53;-3.30;99.90
72940;DHT22;61094;51.154;13.570;2023-02-28T05:39:55;-3.30;99.90
72940;DHT22;61094;51.154;13.570;2023-02-28T05:41:56;-3.40;99.90
72940;DHT22;61094;51.154;13.570;2023-02-28T05:43:58;-3.40;99.90
72940;DHT22;61094;51.154;13.570;2023-02-28T05:46:03;-3.40;99.90
72940;DHT22;61094;51.154;13.570;2023-02-28T05:48:05;-3.50;99.90
72940;DHT22;61094;51.154;13.570;2023-02-28T05:50:09;-3.50;99.90
72940;DHT22;61094;51.154;13.570;2023-02-28T05:52:11;-3.50;99.90
72940;DHT22;61094;51.154;13.570;2023-02-28T05:54:13;-3.50;99.90
72940;DHT22;61094;51.154;13.570;2023-02-28T05:56:15;-3.60;99.90
72940;DHT22;61094;51.154;13.570;2023-02-28T05:58:16;-3.60;99.90
72940;DHT22;61094;51.154;13.570;2023-02-28T06:00:19;-3.70;99.90
72940;DHT22;61094;51.154;13.570;2023-02-28T06:02:21;-3.70;99.90
72940;DHT22;61094;51.154;13.570;2023-02-28T06:04:22;-3.70;99.90
72940;DHT22;61094;51.154;13.570;2023-02-28T06:06:25;-3.70;99.90
72940;DHT22;61094;51.154;13.570;2023-02-28T06:08:27;-3.70;99.90
72940;DHT22;61094;51.154;13.570;2023-02-28T06:10:29;-3.70;99.90
72940;DHT22;61094;51.154;13.570;2023-02-28T06:12:30;-3.70;99.90
72940;DHT22;61094;51.154;13.570;2023-02-28T06:14:33;-3.60;99.90
72940;DHT22;61094;51.154;13.570;2023-02-28T06:16:35;-3.60;99.90
72940;DHT22;61094;51.154;13.570;2023-02-28T06:18:37;-3.60;99.90
72940;DHT22;61094;51.154;13.570;2023-02-28T06:20:39;-3.60;99.90
72940;DHT22;61094;51.154;13.570;2023-02-28T06:22:41;-3.60;99.90
72940;DHT22;61094;51.154;13.570;2023-02-28T06:24:43;-3.60;99.90
72940;DHT22;61094;51.154;13.570;2023-02-28T06:26:45;-3.50;99.90
72940;DHT22;61094;51.154;13.570;2023-02-28T06:28:47;-3.50;99.90
72940;DHT22;61094;51.154;13.570;2023-02-28T06:30:48;-3.50;99.90
72940;DHT22;61094;51.154;13.570;2023-02-28T06:32:50;-3.50;99.90
72940;DHT22;61094;51.154;13.570;2023-02-28T06:34:52;-3.50;99.90
72940;DHT22;61094;51.154;13.570;2023-02-28T06:36:54;-3.50;99.90
72940;DHT22;61094;51.154;13.570;2023-02-28T06:38:57;-3.50;99.90
72940;DHT22;61094;51.154;13.570;2023-02-28T06:41:00;-3.50;99.90
72940;DHT22;61094;51.154;13.570;2023-02-28T06:43:02;-3.50;99.90
72940;DHT22;61094;51.154;13.570;2023-02-28T06:45:04;-3.50;99.90
72940;DHT22;61094;51.154;13.570;2023-02-28T06:47:09;-3.40;99.90
72940;DHT22;61094;51.154;13.570;2023-02-28T06:49:11;-3.40;99.90
72940;DHT22;61094;51.154;13.570;2023-02-28T06:51:15;-3.50;99.90
72940;DHT22;61094;51.154;13.570;2023-02-28T06:53:20;-3.40;99.90
72940;DHT22;61094;51.154;13.570;2023-02-28T06:55:23;-3.40;99.90
72940;DHT22;61094;51.154;13.570;2023-02-28T06:57:25;-3.30;99.90
72940;DHT22;61094;51.154;13.570;2023-02-28T06:59:26;-3.30;99.90
72940;DHT22;61094;51.154;13.570;2023-02-28T07:01:28;-3.30;99.90
72940;DHT22;61094;51.154;13.570;2023-02-28T07:03:32;-3.30;99.90
72940;DHT22;61094;51.154;13.570;2023-02-28T07:05:34;-3.30;99.90
72940;DHT22;61094;51.154;13.570;2023-02-28T07:07:36;-3.30;99.90
72940;DHT22;61094;51.154;13.570;2023-02-28T07:09:40;-3.20;99.90
72940;DHT22;61094;51.154;13.570;2023-02-28T07:11:43;-3.20;99.90
72940;DHT22;61094;51.154;13.570;2023-02-28T07:13:45;-3.10;99.90
72940;DHT22;61094;51.154;13.570;2023-02-28T07:15:53;-3.00;99.90
72940;DHT22;61094;51.154;13.570;2023-02-28T07:17:55;-3.00;99.90
72940;DHT22;61094;51.154;13.570;2023-02-28T07:19:57;-2.90;99.90
72940;DHT22;61094;51.154;13.570;2023-02-28T07:21:58;-2.90;99.90
72940;DHT22;61094;51.154;13.570;2023-02-28T07:24:01;-2.80;99.90
72940;DHT22;61094;51.154;13.570;2023-02-28T07:26:04;-2.70;99.90
72940;DHT22;61094;51.154;13.570;2023-02-28T07:28:07;-2.60;99.90
72940;DHT22;61094;51.154;13.570;2023-02-28T07:30:09;-2.60;99.90
72940;DHT22;61094;51.154;13.570;2023-02-28T07:32:12;-2.40;99.90
72940;DHT22;61094;51.154;13.570;2023-02-28T07:34:14;-2.40;99.90
72940;DHT22;61094;51.154;13.570;2023-02-28T07:36:16;-2.30;99.90
72940;DHT22;61094;51.154;13.570;2023-02-28T07:38:19;-2.10;99.90
72940;DHT22;61094;51.154;13.570;2023-02-28T07:40:21;-2.10;99.90
72940;DHT22;61094;51.154;13.570;2023-02-28T07:42:23;-1.90;99.90
72940;DHT22;61094;51.154;13.570;2023-02-28T07:44:27;-1.80;99.90
72940;DHT22;61094;51.154;13.570;2023-02-28T07:46:29;-1.70;99.90
72940;DHT22;61094;51.154;13.570;2023-02-28T07:48:35;-1.50;99.90
72940;DHT22;61094;51.154;13.570;2023-02-28T07:50:37;-1.50;99.90
72940;DHT22;61094;51.154;13.570;2023-02-28T07:52:39;-1.30;99.90
72940;DHT22;61094;51.154;13.570;2023-02-28T07:54:41;-1.20;99.90
72940;DHT22;61094;51.154;13.570;2023-02-28T07:56:43;-1.10;99.90
72940;DHT22;61094;51.154;13.570;2023-02-28T07:58:44;-1.00;99.90
72940;DHT22;61094;51.154;13.570;2023-02-28T08:00:48;-0.90;99.90
72940;DHT22;61094;51.154;13.570;2023-02-28T08:02:49;-0.70;99.90
72940;DHT22;61094;51.154;13.570;2023-02-28T08:04:52;-0.60;99.90
72940;DHT22;61094;51.154;13.570;2023-02-28T08:06:54;-0.50;99.90
72940;DHT22;61094;51.154;13.570;2023-02-28T08:08:56;-0.40;99.90
72940;DHT22;61094;51.154;13.570;2023-02-28T08:10:59;-0.40;99.90
72940;DHT22;61094;51.154;13.570;2023-02-28T08:13:01;-0.30;99.90
72940;DHT22;61094;51.154;13.570;2023-02-28T08:15:04;-0.10;99.90
72940;DHT22;61094;51.154;13.570;2023-02-28T08:17:07;-0.10;99.90
72940;DHT22;61094;51.154;13.570;2023-02-28T08:19:08;0.00;99.90
72940;DHT22;61094;51.154;13.570;2023-02-28T08:21:11;0.10;99.90
72940;DHT22;61094;51.154;13.570;2023-02-28T08:23:12;0.20;99.90
72940;DHT22;61094;51.154;13.570;2023-02-28T08:25:14;0.20;99.90
72940;DHT22;61094;51.154;13.570;2023-02-28T08:27:16;0.30;99.90
72940;DHT22;61094;51.154;13.570;2023-02-28T08:29:18;0.40;99.90
72940;DHT22;61094;51.154;13.570;2023-02-28T08:31:19;0.50;99.90
72940;DHT22;61094;51.154;13.570;2023-02-28T08:33:23;0.60;99.90
72940;DHT22;61094;51.154;13.570;2023-02-28T08:35:25;0.60;99.90
72940;DHT22;61094;51.154;13.570;2023-02-28T08:37:26;0.60;99.90
72940;DHT22;61094;51.154;13.570;2023-02-28T08:39:28;0.70;99.90
72940;DHT22;61094;51.154;13.570;2023-02-28T08:41:30;0.70;99.90
72940;DHT22;61094;51.154;13.570;2023-02-28T08:43:32;0.70;99.90
72940;DHT22;61094;51.154;13.570;2023-02-28T08:45:34;0.80;99.90
72940;DHT22;61094;51.154;13.570;2023-02-28T08:47:35;0.90;99.90
72940;DHT22;61094;51.154;13.570;2023-02-28T08:49:39;0.90;99.90
72940;DHT22;61094;51.154;13.570;2023-02-28T08:51:40;1.00;99.90
72940;DHT22;61094;51.154;13.570;2023-02-28T08:53:43;1.00;99.90
72940;DHT22;61094;51.154;13.570;2023-02-28T08:55:46;1.10;99.90
72940;DHT22;61094;51.154;13.570;2023-02-28T08:57:47;1.20;99.90
72940;DHT22;61094;51.154;13.570;2023-02-28T08:59:49;1.20;99.90
72940;DHT22;61094;51.154;13.570;2023-02-28T09:01:51;1.20;99.90
72940;DHT22;61094;51.154;13.570;2023-02-28T09:03:54;1.30;99.90
72940;DHT22;61094;51.154;13.570;2023-02-28T09:05:59;1.40;99.90
72940;DHT22;61094;51.154;13.570;2023-02-28T09:08:01;1.50;99.90
72940;DHT22;61094;51.154;13.570;2023-02-28T09:10:03;1.50;99.90
72940;DHT22;61094;51.154;13.570;2023-02-28T09:12:05;1.60;99.90
72940;DHT22;61094;51.154;13.570;2023-02-28T09:14:08;1.60;99.90
72940;DHT22;61094;51.154;13.570;2023-02-28T09:16:11;1.70;99.90
72940;DHT22;61094;51.154;13.570;2023-02-28T09:18:14;1.80;99.90
72940;DHT22;61094;51.154;13.570;2023-02-28T09:20:16;1.90;99.90
72940;DHT22;61094;51.154;13.570;2023-02-28T09:22:19;1.90;99.90
72940;DHT22;61094;51.154;13.570;2023-02-28T09:24:21;1.90;99.90
72940;DHT22;61094;51.154;13.570;2023-02-28T09:26:25;1.90;99.90
72940;DHT22;61094;51.154;13.570;2023-02-28T09:28:26;1.90;99.90
72940;DHT22;61094;51.154;13.570;2023-02-28T09:30:29;1.90;99.90
72940;DHT22;61094;51.154;13.570;2023-02-28T09:32:31;1.90;99.90
72940;DHT22;61094;51.154;13.570;2023-02-28T09:34:32;2.10;99.90
72940;DHT22;61094;51.154;13.570;2023-02-28T09:36:35;2.20;99.90
72940;DHT22;61094;51.154;13.570;2023-02-28T09:38:39;2.50;99.90
72940;DHT22;61094;51.154;13.570;2023-02-28T09:40:48;2.70;99.90
72940;DHT22;61094;51.154;13.570;2023-02-28T09:42:53;2.90;99.90
72940;DHT22;61094;51.154;13.570;2023-02-28T09:44:56;3.20;99.90
72940;DHT22;61094;51.154;13.570;2023-02-28T09:47:01;3.40;99.90
72940;DHT22;61094;51.154;13.570;2023-02-28T09:49:10;3.50;99.90
72940;DHT22;61094;51.154;13.570;2023-02-28T09:51:27;3.80;99.90
72940;DHT22;61094;51.154;13.570;2023-02-28T09:53:32;4.10;99.90
72940;DHT22;61094;51.154;13.570;2023-02-28T09:55:39;4.30;99.90
72940;DHT22;61094;51.154;13.570;2023-02-28T09:57:43;4.50;99.90
72940;DHT22;61094;51.154;13.570;2023-02-28T10:00:00;4.60;99.90
72940;DHT22;61094;51.154;13.570;2023-02-28T10:02:21;4.80;99.90
72940;DHT22;61094;51.154;13.570;2023-02-28T10:04:38;5.10;99.90
72940;DHT22;61094;51.154;13.570;2023-02-28T10:06:45;5.30;99.90
72940;DHT22;61094;51.154;13.570;2023-02-28T10:08:56;5.40;99.90
72940;DHT22;61094;51.154;13.570;2023-02-28T10:11:01;5.50;99.90
72940;DHT22;61094;51.154;13.570;2023-02-28T10:13:11;5.60;99.90
72940;DHT22;61094;51.154;13.570;2023-02-28T10:15:15;5.70;99.90
72940;DHT22;61094;51.154;13.570;2023-02-28T10:17:20;5.90;99.90
72940;DHT22;61094;51.154;13.570;2023-02-28T10:19:23;6.00;99.90
72940;DHT22;61094;51.154;13.570;2023-02-28T10:21:30;5.90;99.90
72940;DHT22;61094;51.154;13.570;2023-02-28T10:23:35;5.90;99.90
72940;DHT22;61094;51.154;13.570;2023-02-28T10:25:38;5.80;99.90
72940;DHT22;61094;51.154;13.570;2023-02-28T10:27:41;5.60;99.90
72940;DHT22;61094;51.154;13.570;2023-02-28T10:29:46;5.50;99.90
72940;DHT22;61094;51.154;13.570;2023-02-28T10:31:48;5.40;99.90
72940;DHT22;61094;51.154;13.570;2023-02-28T10:33:49;5.20;99.90
72940;DHT22;61094;51.154;13.570;2023-02-28T10:35:52;5.00;99.90
72940;DHT22;61094;51.154;13.570;2023-02-28T10:37:55;4.80;99.90
72940;DHT22;61094;51.154;13.570;2023-02-28T10:39:57;4.80;99.90
72940;DHT22;61094;51.154;13.570;2023-02-28T10:41:59;4.90;99.90
72940;DHT22;61094;51.154;13.570;2023-02-28T10:44:20;5.30;99.90
72940;DHT22;61094;51.154;13.570;2023-02-28T10:46:22;5.60;99.90
72940;DHT22;61094;51.154;13.570;2023-02-28T10:48:30;5.90;99.90
72940;DHT22;61094;51.154;13.570;2023-02-28T10:50:37;6.20;99.90
72940;DHT22;61094;51.154;13.570;2023-02-28T10:52:40;6.40;99.90
72940;DHT22;61094;51.154;13.570;2023-02-28T10:54:43;6.50;99.90
72940;DHT22;61094;51.154;13.570;2023-02-28T10:57:06;6.60;99.50
72940;DHT22;61094;51.154;13.570;2023-02-28T10:59:27;6.70;99.90
72940;DHT22;61094;51.154;13.570;2023-02-28T11:01:38;7.00;99.90
72940;DHT22;61094;51.154;13.570;2023-02-28T11:03:40;7.40;99.90
72940;DHT22;61094;51.154;13.570;2023-02-28T11:05:42;7.80;99.90
72940;DHT22;61094;51.154;13.570;2023-02-28T11:07:51;7.90;99.90
72940;DHT22;61094;51.154;13.570;2023-02-28T11:09:54;8.30;99.90
72940;DHT22;61094;51.154;13.570;2023-02-28T11:11:57;8.50;99.90
72940;DHT22;61094;51.154;13.570;2023-02-28T11:14:04;8.80;99.90
72940;DHT22;61094;51.154;13.570;2023-02-28T11:16:10;9.00;99.90
72940;DHT22;61094;51.154;13.570;2023-02-28T11:18:22;9.10;99.90
72940;DHT22;61094;51.154;13.570;2023-02-28T11:20:28;9.10;99.90
72940;DHT22;61094;51.154;13.570;2023-02-28T11:22:32;9.10;99.90
72940;DHT22;61094;51.154;13.570;2023-02-28T11:24:40;9.00;99.90
72940;DHT22;61094;51.154;13.570;2023-02-28T11:26:44;9.00;99.90
72940;DHT22;61094;51.154;13.570;2023-02-28T11:28:46;9.20;99.90
72940;DHT22;61094;51.154;13.570;2023-02-28T11:31:00;9.40;99.90
72940;DHT22;61094;51.154;13.570;2023-02-28T11:35:34;9.70;99.90
72940;DHT22;61094;51.154;13.570;2023-02-28T11:37:39;10.30;99.80
72940;DHT22;61094;51.154;13.570;2023-02-28T11:39:41;10.50;99.90
72940;DHT22;61094;51.154;13.570;2023-02-28T11:41:56;10.60;99.90
72940;DHT22;61094;51.154;13.570;2023-02-28T11:44:13;10.60;99.90
72940;DHT22;61094;51.154;13.570;2023-02-28T11:46:25;10.50;95.90
72940;DHT22;61094;51.154;13.570;2023-02-28T11:48:39;10.00;99.90
72940;DHT22;61094;51.154;13.570;2023-02-28T11:51:00;9.60;99.90
72940;DHT22;61094;51.154;13.570;2023-02-28T11:53:12;9.50;99.90
72940;DHT22;61094;51.154;13.570;2023-02-28T11:55:20;9.20;99.90
72940;DHT22;61094;51.154;13.570;2023-02-28T11:57:34;9.00;99.00
72940;DHT22;61094;51.154;13.570;2023-02-28T11:59:48;8.80;99.90
72940;DHT22;61094;51.154;13.570;2023-02-28T12:02:05;8.60;89.80
72940;DHT22;61094;51.154;13.570;2023-02-28T12:04:20;8.40;99.90
72940;DHT22;61094;51.154;13.570;2023-02-28T12:06:31;8.20;97.90
72940;DHT22;61094;51.154;13.570;2023-02-28T12:08:49;8.00;99.90
72940;DHT22;61094;51.154;13.570;2023-02-28T12:11:02;7.90;99.90
72940;DHT22;61094;51.154;13.570;2023-02-28T12:13:15;7.70;99.30
72940;DHT22;61094;51.154;13.570;2023-02-28T12:15:39;7.70;99.90
72940;DHT22;61094;51.154;13.570;2023-02-28T12:17:52;7.70;87.00
72940;DHT22;61094;51.154;13.570;2023-02-28T12:20:03;7.70;99.90
72940;DHT22;61094;51.154;13.570;2023-02-28T12:22:27;7.60;99.90
72940;DHT22;61094;51.154;13.570;2023-02-28T12:24:50;7.60;99.90
72940;DHT22;61094;51.154;13.570;2023-02-28T12:26:59;7.40;95.00
72940;DHT22;61094;51.154;13.570;2023-02-28T12:29:09;7.40;99.90
72940;DHT22;61094;51.154;13.570;2023-02-28T12:31:18;7.40;99.90
72940;DHT22;61094;51.154;13.570;2023-02-28T12:33:26;7.30;97.60
72940;DHT22;61094;51.154;13.570;2023-02-28T12:35:34;7.30;99.90
72940;DHT22;61094;51.154;13.570;2023-02-28T12:37:43;7.40;99.90
72940;DHT22;61094;51.154;13.570;2023-02-28T12:39:48;7.20;99.90
72940;DHT22;61094;51.154;13.570;2023-02-28T12:41:54;7.00;99.90
72940;DHT22;61094;51.154;13.570;2023-02-28T12:44:01;7.00;99.90
72940;DHT22;61094;51.154;13.570;2023-02-28T12:46:09;6.90;99.90
72940;DHT22;61094;51.154;13.570;2023-02-28T12:48:15;6.80;99.90
72940;DHT22;61094;51.154;13.570;2023-02-28T12:50:20;6.80;99.90
72940;DHT22;61094;51.154;13.570;2023-02-28T12:52:25;6.70;99.90
72940;DHT22;61094;51.154;13.570;2023-02-28T12:54:38;6.70;99.90
72940;DHT22;61094;51.154;13.570;2023-02-28T12:56:48;6.70;99.90
72940;DHT22;61094;51.154;13.570;2023-02-28T12:58:54;6.70;99.90
72940;DHT22;61094;51.154;13.570;2023-02-28T13:01:14;6.70;94.00
72940;DHT22;61094;51.154;13.570;2023-02-28T13:03:33;6.70;99.90
72940;DHT22;61094;51.154;13.570;2023-02-28T13:05:53;6.70;99.90
72940;DHT22;61094;51.154;13.570;2023-02-28T13:08:01;6.80;99.90
72940;DHT22;61094;51.154;13.570;2023-02-28T13:10:07;6.80;99.90
72940;DHT22;61094;51.154;13.570;2023-02-28T13:12:14;6.80;99.90
72940;DHT22;61094;51.154;13.570;2023-02-28T13:14:25;6.90;99.90